CheckWX is a tool to help pilots better visualize weather data.  It is not intended as a substitute for an official pre-flight weather briefing.

15:46:00 UTC

CWLY METAR
Lytton Airport
Lytton, Canada
Current

46 mins ago

CWLY 291500Z AUTO 22013G30KT 170V250 9SM FEW055 BKN077 OVC088 06/02 A2987 RMK SLP122
Observed
Jan-29 @ 15:00 UTC
Wind
  • 220° at 13 KTS
  • Gusting to 30 KTS
Visibility
9 SM
Flight Rules
VFR
Cloud Levels
  • Few at 5,500' AGL
  • Broken at 7,700' AGL
  • Overcast at 8,800' AGL
Temperature
C / 43°F
Dewpoint
C / 36°F
Humidity
76%
Altimeter
29.87" Hg
Pressure
1011.52 hPa
Previous

2 hours ago

CWLY 291414Z AUTO 21013G26KT 180V260 9SM OVC070 06/02 A2989 RMK SLP130
Observed
Jan-29 @ 14:14 UTC
Wind
  • 210° at 13 KTS
  • Gusting to 26 KTS
Visibility
9 SM
Flight Rules
VFR
Cloud Levels
  • Overcast at 7,000' AGL
Temperature
C / 43°F
Dewpoint
C / 36°F
Humidity
76%
Altimeter
29.89" Hg
Pressure
1012.22 hPa
Previous

3 hours ago

CWLY 291303Z AUTO 21013G29KT 9SM -RA OVC070 06/02 A2993 RMK SLP145
Observed
Jan-29 @ 13:03 UTC
Wind
  • 210° at 13 KTS
  • Gusting to 29 KTS
Visibility
9 SM
Flight Rules
VFR
Conditions
Light Rain
Cloud Levels
  • Overcast at 7,000' AGL
Temperature
C / 43°F
Dewpoint
C / 36°F
Humidity
76%
Altimeter
29.93" Hg
Pressure
1013.52 hPa